Time;durP1;ratioP1;P1;durP2;ratioP2;P2;SDS_P1;SDS_P2;PMS_P1;PMS_P2;Temp;Humidity;BMP_temperature;BMP_pressure;BME280_temperature;BME280_humidity;BME280_pressure;Samples;Min_cycle;Max_cycle;Signal;HPM_P1;HPM_P2
2023/09/06 00:00:28;;;;;;;9.20;3.65;;;15.20;99.90;;;15.01;100.00;97622.00;5008062;28;20647;-37
2023/09/06 00:02:56;;;;;;;7.28;4.18;;;15.10;99.90;;;14.95;100.00;97623.16;5010945;28;20619;-37
2023/09/06 00:05:22;;;;;;;5.10;3.60;;;15.10;99.90;;;14.90;100.00;97619.88;5014899;28;20069;-37
2023/09/06 00:07:48;;;;;;;7.90;4.18;;;15.00;99.90;;;14.85;100.00;97625.41;5012900;28;20491;-37
2023/09/06 00:10:14;;;;;;;7.32;4.25;;;15.00;99.90;;;14.81;100.00;97623.00;5014326;28;20022;-37
2023/09/06 00:12:40;;;;;;;7.75;4.22;;;14.90;99.90;;;14.75;100.00;97623.28;5011575;28;20051;-37
2023/09/06 00:15:08;;;;;;;6.75;4.18;;;14.90;99.90;;;14.70;100.00;97619.09;5026697;28;20508;-37
2023/09/06 00:17:37;;;;;;;8.05;4.45;;;14.80;99.90;;;14.61;100.00;97603.63;5010747;28;20060;-37
2023/09/06 00:20:47;;;;;;;6.85;4.22;;;14.80;99.90;;;14.63;100.00;97615.03;5014755;28;20484;-37
2023/09/06 00:22:59;;;;;;;8.80;4.55;;;14.70;99.90;;;14.68;100.00;97615.66;5003784;28;20932;-38
2023/09/06 00:25:27;;;;;;;6.50;4.32;;;14.70;99.90;;;14.65;100.00;97610.50;5009628;28;20041;-37
2023/09/06 00:27:55;;;;;;;7.90;4.82;;;14.80;99.90;;;14.68;100.00;97612.16;5011316;28;20360;-37
2023/09/06 00:30:21;;;;;;;7.38;4.50;;;14.80;99.90;;;14.71;100.00;97609.31;5012025;28;20240;-37
2023/09/06 00:32:52;;;;;;;8.35;5.10;;;14.80;99.90;;;14.66;100.00;97604.25;5007030;28;20170;-37
2023/09/06 00:35:27;;;;;;;11.32;5.43;;;14.80;99.90;;;14.66;100.00;97601.59;5012349;28;20018;-38
2023/09/06 00:37:54;;;;;;;8.23;4.50;;;14.80;99.90;;;14.70;100.00;97608.47;5014744;28;20124;-37
2023/09/06 00:40:24;;;;;;;7.68;4.50;;;14.80;99.90;;;14.72;100.00;97608.41;5014174;28;20036;-37
2023/09/06 00:42:51;;;;;;;6.90;4.45;;;14.80;99.90;;;14.66;100.00;97598.06;5012152;28;20032;-37
2023/09/06 00:45:21;;;;;;;7.18;4.63;;;14.80;99.90;;;14.62;100.00;97599.16;5017385;28;20112;-37
2023/09/06 00:47:49;;;;;;;6.05;4.65;;;14.70;99.90;;;14.57;100.00;97596.72;5011429;28;20032;-37
2023/09/06 00:50:16;;;;;;;7.43;5.03;;;14.70;99.90;;;14.54;100.00;97606.63;5013072;28;20021;-38
2023/09/06 00:52:43;;;;;;;7.43;5.40;;;14.70;99.90;;;14.51;100.00;97608.47;5013827;28;20036;-37
2023/09/06 00:55:10;;;;;;;8.27;5.22;;;14.60;99.90;;;14.48;100.00;97608.66;5017839;28;20036;-37
2023/09/06 00:57:40;;;;;;;6.43;4.50;;;14.60;99.90;;;14.46;100.00;97614.97;5015232;28;20412;-37
2023/09/06 01:00:12;;;;;;;8.93;5.45;;;14.60;99.90;;;14.43;100.00;97613.31;5013764;28;20044;-37
2023/09/06 01:02:38;;;;;;;7.07;4.85;;;14.50;99.90;;;14.36;100.00;97611.06;5014305;28;20515;-38
2023/09/06 01:05:04;;;;;;;7.85;4.85;;;14.50;99.90;;;14.29;100.00;97605.19;5019141;28;20037;-37
2023/09/06 01:07:34;;;;;;;7.50;4.65;;;14.40;99.90;;;14.24;100.00;97609.84;5018958;28;20049;-37
2023/09/06 01:10:03;;;;;;;6.63;4.70;;;14.40;99.90;;;14.18;100.00;97613.66;5028298;28;20499;-37
2023/09/06 01:12:29;;;;;;;8.95;4.97;;;14.30;99.90;;;14.13;100.00;97608.56;5015940;28;20025;-37
2023/09/06 01:14:55;;;;;;;7.82;4.57;;;14.30;99.90;;;14.07;100.00;97600.06;5009122;28;20037;-37
2023/09/06 01:17:24;;;;;;;6.60;4.70;;;14.30;99.90;;;14.10;100.00;97607.84;5012961;28;20030;-37
2023/09/06 01:20:01;;;;;;;8.93;5.25;;;14.20;99.90;;;14.07;100.00;97606.22;5014490;28;20205;-37
2023/09/06 01:22:38;;;;;;;8.80;5.18;;;14.20;99.90;;;14.02;100.00;97600.28;5016102;28;20045;-37
2023/09/06 01:25:05;;;;;;;8.52;4.97;;;14.20;99.90;;;14.05;100.00;97593.94;5016944;28;20037;-37
2023/09/06 01:27:31;;;;;;;7.03;4.95;;;14.20;99.90;;;14.05;100.00;97599.25;5019460;28;20021;-37
2023/09/06 01:29:57;;;;;;;6.38;4.70;;;14.20;99.90;;;14.03;100.00;97596.69;5008446;28;20453;-37
2023/09/06 01:32:24;;;;;;;8.88;4.90;;;14.20;99.90;;;13.98;100.00;97597.81;5019746;28;20037;-37
2023/09/06 01:34:49;;;;;;;8.35;5.60;;;14.10;99.90;;;13.90;100.00;97584.94;5011401;28;20075;-38
2023/09/06 01:37:15;;;;;;;5.25;4.60;;;14.10;99.90;;;13.89;100.00;97600.00;5013243;28;20292;-37
2023/09/06 01:39:41;;;;;;;9.60;4.75;;;14.10;99.90;;;13.88;100.00;97594.75;5011595;28;20044;-37
2023/09/06 01:42:06;;;;;;;5.75;4.75;;;14.00;99.90;;;13.86;100.00;97594.84;5015457;28;20037;-37
2023/09/06 01:44:32;;;;;;;6.53;5.07;;;14.00;99.90;;;13.85;100.00;97593.09;5017174;28;20041;-37
2023/09/06 01:46:58;;;;;;;8.20;4.65;;;14.00;99.90;;;13.83;100.00;97588.81;5004424;28;20032;-37
2023/09/06 01:49:23;;;;;;;7.45;5.13;;;14.00;99.90;;;13.82;100.00;97589.72;5012966;28;20037;-38
2023/09/06 01:51:49;;;;;;;7.63;4.70;;;14.00;99.90;;;13.80;100.00;97587.19;5014579;28;20476;-37
2023/09/06 01:54:16;;;;;;;8.45;5.00;;;13.90;99.90;;;13.74;100.00;97583.00;5015619;28;20061;-37
2023/09/06 01:56:42;;;;;;;7.57;5.45;;;13.90;99.90;;;13.77;100.00;97586.47;5011356;28;20495;-37
2023/09/06 01:59:08;;;;;;;8.68;5.38;;;13.90;99.90;;;13.74;100.00;97588.31;5014999;28;20037;-37
2023/09/06 02:01:33;;;;;;;9.23;5.15;;;13.90;99.90;;;13.68;100.00;97585.09;5010816;28;20064;-37
2023/09/06 02:04:01;;;;;;;7.75;5.13;;;13.90;99.90;;;13.65;100.00;97579.94;5013433;28;20030;-37
2023/09/06 02:06:27;;;;;;;7.78;5.07;;;13.90;99.90;;;13.68;100.00;97585.94;4994732;28;20025;-37
2023/09/06 02:08:52;;;;;;;6.75;5.13;;;13.80;99.90;;;13.65;100.00;97588.72;5008687;28;20504;-37
2023/09/06 02:11:18;;;;;;;6.38;4.70;;;13.80;99.90;;;13.62;100.00;97588.00;5041370;23;20048;-36
2023/09/06 02:13:44;;;;;;;7.28;5.30;;;13.80;99.90;;;13.60;100.00;97588.06;5036589;28;20056;-36
2023/09/06 02:16:12;;;;;;;6.72;4.85;;;13.70;99.90;;;13.56;100.00;97589.16;5032674;28;20055;-36
2023/09/06 02:18:37;;;;;;;8.20;5.07;;;13.70;99.90;;;13.55;100.00;97593.59;5034568;28;20539;-36
2023/09/06 02:21:03;;;;;;;7.40;4.70;;;13.70;99.90;;;13.51;100.00;97594.69;5027083;28;20033;-36
2023/09/06 02:23:29;;;;;;;7.47;4.63;;;13.70;99.90;;;13.48;100.00;97589.53;5032698;28;20109;-35
2023/09/06 02:25:56;;;;;;;7.07;4.45;;;13.60;99.90;;;13.46;100.00;97590.50;5025981;28;20416;-36
2023/09/06 02:28:22;;;;;;;6.40;4.65;;;13.60;99.90;;;13.43;100.00;97591.50;5034063;28;20057;-36
2023/09/06 02:30:48;;;;;;;7.47;4.53;;;13.60;99.90;;;13.38;100.00;97585.56;5027986;28;20069;-35
2023/09/06 02:33:14;;;;;;;9.02;4.90;;;13.60;99.90;;;13.38;100.00;97585.56;5030804;28;20107;-35
2023/09/06 02:35:41;;;;;;;6.75;4.60;;;13.50;99.90;;;13.35;100.00;97585.69;5033326;28;20492;-36
2023/09/06 02:38:13;;;;;;;7.50;4.82;;;13.50;99.90;;;13.24;100.00;97566.75;5033671;28;20451;-36
2023/09/06 02:40:42;;;;;;;6.20;4.82;;;13.50;99.90;;;13.30;100.00;97585.03;5033141;28;20234;-36
2023/09/06 02:43:10;;;;;;;6.63;4.70;;;13.50;99.90;;;13.15;100.00;97571.53;5026751;28;20075;-36
2023/09/06 02:45:37;;;;;;;6.97;4.72;;;13.40;99.90;;;13.18;100.00;97592.56;5030505;28;20068;-36
2023/09/06 02:48:12;;;;;;;6.88;4.90;;;13.40;99.90;;;13.15;100.00;97592.72;5027582;28;20033;-36
2023/09/06 02:50:39;;;;;;;7.63;4.75;;;13.40;99.90;;;13.12;100.00;97584.91;5032232;28;20025;-36
2023/09/06 02:53:15;;;;;;;7.75;4.60;;;13.30;99.90;;;13.12;100.00;97586.72;5031969;28;20041;-36
2023/09/06 02:55:41;;;;;;;7.90;4.20;;;13.30;99.90;;;13.09;100.00;97592.97;5031965;28;20025;-36
2023/09/06 02:58:10;;;;;;;6.20;4.75;;;13.30;99.90;;;13.03;100.00;97582.69;5033066;28;21076;-36
2023/09/06 03:00:40;;;;;;;8.32;4.70;;;13.20;99.90;;;12.99;100.00;97581.06;5032719;28;20033;-35
2023/09/06 03:03:05;;;;;;;6.78;4.68;;;13.20;99.90;;;12.98;100.00;97582.88;5030414;28;20045;-35
2023/09/06 03:05:34;;;;;;;7.97;4.70;;;13.20;99.90;;;12.84;100.00;97563.22;5035166;28;20080;-35
2023/09/06 03:08:00;;;;;;;8.02;4.60;;;13.20;99.90;;;12.94;100.00;97585.72;5032389;28;20052;-36
2023/09/06 03:10:27;;;;;;;6.57;4.55;;;13.10;99.90;;;12.89;100.00;97585.06;5030690;28;20484;-36
2023/09/06 03:12:57;;;;;;;6.35;4.32;;;13.10;99.90;;;12.89;100.00;97579.78;5033714;28;20047;-35
2023/09/06 03:15:27;;;;;;;7.03;4.72;;;13.10;99.90;;;12.91;100.00;97584.06;5029371;28;21605;-35
2023/09/06 03:17:53;;;;;;;7.20;4.85;;;13.10;99.90;;;12.95;100.00;97582.13;5026663;28;20048;-35
2023/09/06 03:21:04;;;;;;;6.22;4.65;;;13.10;99.90;;;12.95;100.00;97582.13;5031600;28;20044;-35
2023/09/06 03:23:20;;;;;;;9.65;5.35;;;13.10;99.90;;;12.93;100.00;97586.66;5031145;28;20254;-35
2023/09/06 03:25:49;;;;;;;6.65;4.93;;;13.10;99.90;;;12.90;100.00;97584.13;5032275;28;20301;-36
2023/09/06 03:28:16;;;;;;;7.70;4.53;;;13.10;99.90;;;12.88;100.00;97593.91;5031330;28;20052;-36
2023/09/06 03:30:42;;;;;;;7.32;4.65;;;13.10;99.90;;;12.86;100.00;97587.84;5033408;28;20067;-36
2023/09/06 03:33:08;;;;;;;6.80;4.88;;;13.10;99.90;;;12.75;100.00;97581.22;5023965;28;20311;-35
2023/09/06 03:35:34;;;;;;;5.78;4.78;;;13.00;99.90;;;12.78;100.00;97596.97;5034309;28;20032;-35
2023/09/06 03:38:01;;;;;;;6.60;5.10;;;13.00;99.90;;;12.67;100.00;97577.16;5028412;28;20032;-36
2023/09/06 03:40:37;;;;;;;6.22;4.47;;;12.90;99.90;;;12.72;100.00;97599.00;5029388;28;20029;-36
2023/09/06 03:43:15;;;;;;;5.53;4.20;;;12.90;99.90;;;12.68;100.00;97598.28;5034281;28;20036;-35
2023/09/06 03:45:45;;;;;;;6.43;4.70;;;12.90;99.90;;;12.67;100.00;97593.91;5031309;28;20048;-36
2023/09/06 03:48:17;;;;;;;6.25;4.18;;;12.80;99.90;;;12.67;100.00;97596.56;5032189;28;20035;-35
2023/09/06 03:50:43;;;;;;;9.97;4.73;;;12.80;99.90;;;12.64;100.00;97594.03;5032772;28;20055;-36
2023/09/06 03:53:09;;;;;;;7.57;4.45;;;12.80;99.90;;;12.57;100.00;97576.72;5030954;28;20045;-36
2023/09/06 03:55:37;;;;;;;5.95;4.50;;;12.90;99.90;;;12.68;100.00;97592.97;5029062;28;20036;-35
2023/09/06 03:58:07;;;;;;;7.70;4.32;;;12.90;99.90;;;12.72;100.00;97596.34;5032451;28;20087;-36
2023/09/06 04:00:33;;;;;;;5.13;4.22;;;12.90;99.90;;;12.75;100.00;97594.44;5033863;28;20284;-36
2023/09/06 04:02:59;;;;;;;5.20;4.10;;;12.90;99.90;;;12.78;100.00;97591.69;5027607;28;20045;-35
2023/09/06 04:05:26;;;;;;;6.20;4.75;;;13.00;99.90;;;12.82;100.00;97594.19;5030461;28;20040;-35
2023/09/06 04:07:58;;;;;;;6.57;4.85;;;13.00;99.90;;;12.87;100.00;97594.88;5029604;28;20392;-35
2023/09/06 04:10:27;;;;;;;8.65;4.82;;;13.10;99.90;;;12.87;100.00;97593.06;5033785;28;20025;-35
2023/09/06 04:12:55;;;;;;;5.22;4.15;;;13.10;99.90;;;12.82;100.00;97589.75;5032499;28;20439;-35
2023/09/06 04:15:22;;;;;;;6.57;4.65;;;13.00;99.90;;;12.81;100.00;97590.66;5031955;28;20697;-36
2023/09/06 04:17:58;;;;;;;6.30;4.57;;;13.00;99.90;;;12.77;100.00;97591.72;5032280;28;20477;-35
2023/09/06 04:20:31;;;;;;;7.43;5.00;;;13.00;99.90;;;12.76;100.00;97588.25;5036386;28;20056;-35
2023/09/06 04:23:00;;;;;;;9.00;5.00;;;13.00;99.90;;;12.75;100.00;97588.31;5029805;28;20108;-36
2023/09/06 04:25:28;;;;;;;5.57;4.10;;;12.90;99.90;;;12.71;100.00;97587.56;5032016;28;20060;-35
2023/09/06 04:27:54;;;;;;;6.50;4.80;;;12.90;99.90;;;12.72;100.00;97591.94;5031352;28;20476;-35
2023/09/06 04:30:28;;;;;;;6.20;4.70;;;12.90;99.90;;;12.69;100.00;97597.38;5032727;28;20551;-36
2023/09/06 04:32:54;;;;;;;6.82;4.55;;;12.90;99.90;;;12.64;100.00;97586.09;5026350;28;20029;-35
2023/09/06 04:35:22;;;;;;;6.03;4.25;;;12.90;99.90;;;12.59;100.00;97588.09;5036312;28;20477;-35
2023/09/06 04:37:48;;;;;;;7.15;4.15;;;12.80;99.90;;;12.60;100.00;97605.69;5024384;28;20112;-36
2023/09/06 04:40:14;;;;;;;6.95;4.38;;;12.80;99.90;;;12.57;100.00;97606.66;5033622;28;20071;-35
2023/09/06 04:42:43;;;;;;;6.05;4.57;;;12.80;99.90;;;12.56;100.00;97599.66;5032118;28;20436;-35
2023/09/06 04:45:10;;;;;;;7.25;4.38;;;12.80;99.90;;;12.54;100.00;97603.28;5028821;28;20060;-36
2023/09/06 04:47:43;;;;;;;7.65;4.90;;;12.70;99.90;;;12.51;100.00;97600.78;5029089;28;20092;-35
2023/09/06 04:50:13;;;;;;;6.53;4.28;;;12.70;99.90;;;12.45;100.00;97599.22;5021756;28;20110;-36
2023/09/06 04:52:47;;;;;;;6.90;5.07;;;12.70;99.90;;;12.42;100.00;97604.66;5023538;28;20029;-35
2023/09/06 04:55:14;;;;;;;7.43;4.75;;;12.60;99.90;;;12.33;100.00;97592.69;5029307;28;20428;-35
2023/09/06 04:57:41;;;;;;;7.65;5.15;;;12.60;99.90;;;12.37;100.00;97609.28;5028203;28;20033;-35
2023/09/06 05:00:17;;;;;;;9.32;5.10;;;12.60;99.90;;;12.33;100.00;97603.25;5029656;28;20132;-35
2023/09/06 05:02:47;;;;;;;6.35;4.97;;;12.60;99.90;;;12.32;100.00;97614.75;5031462;28;20028;-36
2023/09/06 05:05:14;;;;;;;8.07;4.85;;;12.60;99.90;;;12.36;100.00;97607.53;5026921;28;20040;-35
2023/09/06 05:07:41;;;;;;;6.10;4.82;;;12.50;99.90;;;12.29;100.00;97600.78;5027411;28;20028;-35
2023/09/06 05:10:09;;;;;;;7.10;4.65;;;12.60;99.90;;;12.31;100.00;97605.09;5029508;28;20029;-36
2023/09/06 05:12:36;;;;;;;8.00;4.50;;;12.60;99.90;;;12.43;100.00;97619.59;5033093;28;20435;-38
2023/09/06 05:15:03;;;;;;;5.20;4.40;;;12.60;99.90;;;12.47;100.00;97617.69;5021646;28;20033;-36
2023/09/06 05:17:29;;;;;;;6.55;4.40;;;12.70;99.90;;;12.51;100.00;97616.66;5030145;28;20472;-37
2023/09/06 05:19:54;;;;;;;7.28;4.53;;;12.70;99.90;;;12.49;100.00;97607.91;5033211;28;20025;-38
2023/09/06 05:22:22;;;;;;;7.10;4.57;;;12.80;99.90;;;12.57;100.00;97616.38;5032021;28;20033;-36
2023/09/06 05:24:50;;;;;;;5.65;4.18;;;12.80;99.90;;;12.67;100.00;97620.38;5032461;28;20505;-36
2023/09/06 05:27:17;;;;;;;6.43;4.65;;;12.90;99.90;;;12.72;100.00;97621.06;5035363;28;20036;-37
2023/09/06 05:29:43;;;;;;;7.82;4.38;;;12.90;99.90;;;12.79;100.00;97619.88;5035477;28;20075;-36
2023/09/06 05:32:09;;;;;;;6.22;4.40;;;13.00;99.90;;;12.85;100.00;97626.69;5039005;28;20439;-37
2023/09/06 05:34:35;;;;;;;5.38;4.03;;;13.10;99.90;;;12.91;100.00;97620.25;5040798;28;20093;-37
2023/09/06 05:37:00;;;;;;;6.47;4.18;;;13.10;99.90;;;12.92;100.00;97614.91;5034429;28;20041;-37
2023/09/06 05:39:26;;;;;;;6.32;4.60;;;13.20;99.90;;;13.03;100.00;97624.16;5038270;28;20048;-37
2023/09/06 05:41:54;;;;;;;5.93;4.50;;;13.20;99.90;;;13.07;100.00;97626.63;5038045;28;20037;-36
2023/09/06 05:44:19;;;;;;;8.48;4.70;;;13.30;99.90;;;13.09;100.00;97623.91;5037456;28;20064;-37
2023/09/06 05:46:45;;;;;;;6.03;4.25;;;13.30;99.90;;;13.15;100.00;97623.63;5035777;28;20392;-37
2023/09/06 05:49:11;;;;;;;5.45;4.20;;;13.40;99.90;;;13.21;100.00;97626.03;5041416;28;20098;-37
2023/09/06 05:51:36;;;;;;;8.20;4.68;;;13.40;99.90;;;13.27;100.00;97623.09;5037772;28;20025;-36
2023/09/06 05:54:02;;;;;;;5.82;4.45;;;13.50;99.90;;;13.36;100.00;97624.50;5040008;28;20027;-37
2023/09/06 05:56:28;;;;;;;6.75;4.80;;;13.60;99.90;;;13.33;100.00;97614.94;5032985;28;20021;-37
2023/09/06 05:58:54;;;;;;;6.15;4.93;;;13.70;99.90;;;13.49;100.00;97628.31;5035236;28;20041;-37
2023/09/06 06:01:19;;;;;;;5.97;4.63;;;13.70;99.90;;;13.59;100.00;97631.44;5038662;28;20419;-38
2023/09/06 06:03:45;;;;;;;6.55;4.97;;;13.80;99.90;;;13.66;100.00;97635.50;5041367;28;20025;-37
2023/09/06 06:06:14;;;;;;;6.28;4.85;;;13.90;99.90;;;13.72;100.00;97634.38;5038272;28;20021;-37
2023/09/06 06:08:41;;;;;;;5.95;4.75;;;13.90;99.90;;;13.81;100.00;97635.75;5038375;28;20411;-37
2023/09/06 06:11:08;;;;;;;6.38;4.15;;;14.00;99.90;;;13.89;100.00;97642.41;5036035;28;20045;-37
2023/09/06 06:13:34;;;;;;;8.90;4.82;;;14.10;99.90;;;13.98;100.00;97646.44;5035608;28;20063;-37
2023/09/06 06:16:00;;;;;;;6.65;4.70;;;14.20;99.90;;;14.07;100.00;97642.50;5036834;28;20157;-36
2023/09/06 06:18:26;;;;;;;7.25;5.03;;;14.30;99.90;;;14.08;100.00;97636.25;5034273;28;20206;-37
2023/09/06 06:20:53;;;;;;;8.10;4.78;;;14.40;99.90;;;14.28;100.00;97649.44;5038776;28;20025;-37
2023/09/06 06:23:19;;;;;;;6.72;4.90;;;14.50;99.90;;;14.39;100.00;97653.34;5036092;28;20060;-37
2023/09/06 06:25:44;;;;;;;6.63;4.32;;;14.60;99.90;;;14.48;100.00;97645.81;5037192;28;20411;-37
2023/09/06 06:28:10;;;;;;;6.68;4.80;;;14.70;99.90;;;14.62;100.00;97649.59;5034561;28;20060;-37
2023/09/06 06:30:36;;;;;;;6.60;4.80;;;14.80;99.90;;;14.66;100.00;97646.72;5035721;28;20036;-38
2023/09/06 06:33:01;;;;;;;5.95;4.57;;;14.90;99.90;;;14.76;100.00;97649.78;5042623;28;20065;-36
2023/09/06 06:35:27;;;;;;;6.72;4.38;;;15.00;99.90;;;14.85;100.00;97651.13;5042552;28;20024;-37
2023/09/06 06:37:53;;;;;;;5.72;4.38;;;15.10;99.90;;;14.93;100.00;97651.59;5041373;28;20039;-38
2023/09/06 06:40:19;;;;;;;5.90;4.35;;;15.20;99.90;;;15.03;100.00;97655.47;5042424;28;20159;-37
2023/09/06 06:42:45;;;;;;;11.73;5.00;;;15.30;99.90;;;15.13;100.00;97644.38;5036003;28;20037;-37
2023/09/06 06:45:11;;;;;;;7.35;4.40;;;15.40;99.90;;;15.21;100.00;97644.88;5039609;28;20041;-37
2023/09/06 06:47:37;;;;;;;7.38;4.78;;;15.40;99.90;;;15.33;100.00;97651.34;5041339;28;20589;-37
2023/09/06 06:50:06;;;;;;;9.32;4.85;;;15.50;99.90;;;15.40;100.00;97642.97;5039555;28;20724;-37
2023/09/06 06:52:36;;;;;;;6.95;4.30;;;15.60;99.90;;;15.49;100.00;97648.72;5036741;28;20032;-37
2023/09/06 06:55:06;;;;;;;8.15;4.35;;;15.70;99.90;;;15.51;100.00;97639.75;5042565;28;20557;-37
2023/09/06 06:57:33;;;;;;;5.25;4.07;;;15.80;99.90;;;15.53;100.00;97635.19;5036902;28;20268;-37
2023/09/06 07:00:00;;;;;;;5.35;4.15;;;15.80;99.90;;;15.62;100.00;97639.16;5040118;28;20029;-39
2023/09/06 07:02:26;;;;;;;4.88;3.97;;;15.90;99.90;;;15.75;100.00;97650.88;5038896;28;20060;-37
2023/09/06 07:04:52;;;;;;;7.10;4.57;;;16.00;99.90;;;15.83;100.00;97658.47;5041283;28;20215;-40
2023/09/06 07:07:18;;;;;;;5.70;4.43;;;16.10;99.90;;;15.90;100.00;97664.28;5040330;28;20471;-37
2023/09/06 07:09:44;;;;;;;6.80;4.35;;;16.10;99.90;;;15.97;100.00;97660.34;5038754;28;20591;-37
2023/09/06 07:12:10;;;;;;;7.43;4.80;;;16.20;99.90;;;15.96;100.00;97651.53;5034793;28;20032;-37
2023/09/06 07:14:36;;;;;;;9.95;4.50;;;16.30;99.90;;;16.10;100.00;97666.75;5041324;28;20045;-37
2023/09/06 07:17:02;;;;;;;8.38;4.70;;;16.30;99.90;;;16.16;100.00;97671.72;5032770;28;20514;-38
2023/09/06 07:19:27;;;;;;;5.78;4.10;;;16.40;99.90;;;16.23;100.00;97670.44;5038236;28;20103;-38
2023/09/06 07:21:54;;;;;;;8.35;4.55;;;16.40;99.90;;;16.29;100.00;97669.22;5037592;28;20465;-37
2023/09/06 07:24:19;;;;;;;7.80;3.80;;;16.50;99.90;;;16.41;100.00;97675.69;5031858;28;20044;-38
2023/09/06 07:26:45;;;;;;;8.65;4.32;;;16.60;99.90;;;16.49;100.00;97680.56;5028344;28;20388;-36
2023/09/06 07:29:11;;;;;;;6.25;4.30;;;16.70;99.90;;;16.56;100.00;97680.16;5030927;28;20036;-36
2023/09/06 07:31:37;;;;;;;8.95;4.85;;;16.80;99.90;;;16.63;100.00;97667.31;5034607;28;20026;-36
2023/09/06 07:34:03;;;;;;;6.78;4.30;;;16.90;99.90;;;16.79;100.00;97672.63;5032914;28;20036;-36
2023/09/06 07:36:29;;;;;;;8.27;4.70;;;17.00;99.90;;;16.91;100.00;97671.94;5034260;28;20039;-37
2023/09/06 07:38:57;;;;;;;7.30;4.70;;;17.10;99.90;;;17.02;100.00;97666.00;5038053;28;20013;-37
2023/09/06 07:41:25;;;;;;;6.10;4.22;;;17.10;99.90;;;17.01;100.00;97655.44;5037299;28;20036;-37
2023/09/06 07:43:51;;;;;;;8.18;4.68;;;17.20;99.90;;;17.24;100.00;97670.91;5035486;28;20392;-36
2023/09/06 07:46:17;;;;;;;6.70;4.07;;;17.40;99.90;;;17.35;100.00;97668.47;5033323;28;20032;-37
2023/09/06 07:48:42;;;;;;;6.43;4.28;;;17.50;99.90;;;17.48;100.00;97671.25;5034342;28;20036;-37
2023/09/06 07:51:10;;;;;;;5.82;4.35;;;17.60;99.90;;;17.58;100.00;97668.88;5036558;28;20028;-38
2023/09/06 07:53:37;;;;;;;7.50;4.93;;;17.70;99.90;;;17.64;100.00;97673.84;5036680;28;20026;-38
2023/09/06 07:56:05;;;;;;;6.85;3.97;;;17.80;99.90;;;17.74;100.00;97676.78;5039441;28;20718;-37
2023/09/06 07:58:31;;;;;;;5.47;4.25;;;17.80;99.90;;;17.79;100.00;97663.19;5036550;28;20122;-38
2023/09/06 08:00:57;;;;;;;7.55;4.35;;;17.90;99.90;;;17.90;100.00;97668.75;5034082;28;20025;-36
2023/09/06 08:03:23;;;;;;;7.10;4.05;;;18.00;99.90;;;18.03;100.00;97675.00;5038285;28;20029;-37
2023/09/06 08:05:48;;;;;;;7.88;4.43;;;18.10;99.90;;;18.13;100.00;97672.63;5036113;28;20029;-38
2023/09/06 08:08:14;;;;;;;6.32;4.22;;;18.20;99.90;;;18.25;100.00;97674.53;5039485;28;20040;-37
2023/09/06 08:10:40;;;;;;;6.22;3.55;;;18.30;99.90;;;18.35;100.00;97672.13;5053489;23;20045;-36
2023/09/06 08:13:06;;;;;;;7.38;3.72;;;18.40;99.90;;;18.54;100.00;97690.50;5016682;28;20478;-36
2023/09/06 08:15:33;;;;;;;10.10;4.70;;;18.60;99.90;;;18.68;100.00;97693.13;5018795;28;20612;-37
2023/09/06 08:17:59;;;;;;;6.88;4.10;;;18.70;99.90;;;18.83;100.00;97693.94;4987285;28;20064;-38
2023/09/06 08:20:25;;;;;;;6.07;4.30;;;18.80;99.90;;;18.98;100.00;97700.09;5012719;28;20036;-36
2023/09/06 08:22:51;;;;;;;6.55;3.88;;;19.00;99.90;;;19.09;100.00;97683.34;5012334;28;20026;-37
2023/09/06 08:25:18;;;;;;;5.93;4.30;;;19.10;99.90;;;19.25;100.00;97685.84;5002687;28;20312;-36
2023/09/06 08:27:44;;;;;;;6.18;4.18;;;19.20;99.90;;;19.35;100.00;97694.97;5013574;28;20083;-36
2023/09/06 08:30:13;;;;;;;4.75;3.65;;;19.30;99.90;;;19.47;99.52;97690.59;5018226;28;20026;-37
2023/09/06 08:32:40;;;;;;;7.00;4.72;;;19.40;99.90;;;19.56;94.51;97691.75;5013768;28;20033;-36
2023/09/06 08:35:07;;;;;;;6.95;4.45;;;19.50;99.90;;;19.63;93.69;97695.72;5016417;28;20432;-36
2023/09/06 08:37:34;;;;;;;5.75;4.45;;;19.60;99.90;;;19.73;92.27;97695.97;5013431;28;20124;-36
2023/09/06 08:40:07;;;;;;;7.55;4.47;;;19.60;99.90;;;19.80;99.89;97695.47;5006447;28;20046;-36
2023/09/06 08:42:39;;;;;;;6.95;4.10;;;19.70;99.90;;;19.88;93.23;97697.59;5007982;28;20048;-36
2023/09/06 08:45:09;;;;;;;7.65;3.95;;;19.80;99.90;;;20.00;93.23;97694.06;5016457;28;20038;-36
2023/09/06 08:47:39;;;;;;;6.90;3.65;;;19.90;99.90;;;20.01;94.63;97682.38;5015631;28;20041;-36
2023/09/06 08:50:09;;;;;;;7.68;4.15;;;20.00;99.90;;;20.12;88.95;97696.84;5018576;28;20076;-36
2023/09/06 08:52:40;;;;;;;5.35;4.07;;;20.00;99.90;;;20.20;92.97;97702.50;5018666;28;20434;-37
2023/09/06 08:55:07;;;;;;;7.32;4.35;;;20.10;99.90;;;20.23;87.87;97693.41;5004017;28;20040;-36
2023/09/06 08:57:34;;;;;;;5.68;3.95;;;20.10;99.90;;;20.22;92.01;97700.56;5007957;28;20096;-36
2023/09/06 09:00:02;;;;;;;7.03;3.92;;;20.10;99.90;;;20.29;88.50;97696.47;4996796;28;20507;-37
2023/09/06 09:02:27;;;;;;;6.72;3.70;;;20.20;99.90;;;20.40;86.66;97693.91;5011928;28;20078;-37
2023/09/06 09:04:53;;;;;;;5.72;4.10;;;20.30;99.90;;;20.46;86.60;97697.94;5016213;28;20029;-37
2023/09/06 09:07:19;;;;;;;6.22;4.00;;;20.40;99.90;;;20.53;86.28;97695.66;5014327;28;20030;-38
2023/09/06 09:09:57;;;;;;;6.63;3.80;;;20.40;99.90;;;20.60;85.55;97702.28;5009418;28;20029;-37
2023/09/06 09:12:34;;;;;;;6.70;4.10;;;20.50;99.90;;;20.56;83.95;97698.97;5012978;28;20465;-37
2023/09/06 09:15:00;;;;;;;7.65;4.30;;;20.50;99.90;;;20.62;88.49;97696.84;5021469;28;20025;-37
2023/09/06 09:17:27;;;;;;;5.00;3.55;;;20.50;99.90;;;20.71;85.98;97691.69;5007886;28;20041;-37
2023/09/06 09:19:56;;;;;;;5.15;4.00;;;20.60;99.90;;;20.64;85.77;97682.38;5011471;28;20057;-38
2023/09/06 09:22:28;;;;;;;5.13;4.13;;;20.60;99.90;;;20.79;88.56;97701.84;5015529;28;20045;-37
2023/09/06 09:25:16;;;;;;;6.30;4.38;;;20.70;99.90;;;20.89;83.88;97710.03;5010825;28;20519;-37
2023/09/06 09:27:45;;;;;;;9.52;4.43;;;20.80;99.90;;;20.87;81.33;97704.81;5012368;28;20109;-37
2023/09/06 09:30:14;;;;;;;8.18;3.80;;;20.80;99.90;;;20.91;81.29;97700.94;5010339;28;20053;-37
2023/09/06 09:32:41;;;;;;;5.25;4.13;;;20.80;99.90;;;21.00;83.82;97704.75;5016126;28;20032;-37
2023/09/06 09:35:11;;;;;;;5.55;3.83;;;20.90;99.90;;;21.10;79.61;97696.88;5007432;28;20716;-37
2023/09/06 09:37:41;;;;;;;5.50;3.80;;;21.00;99.90;;;21.17;80.20;97696.31;5014934;28;20718;-37
2023/09/06 09:40:21;;;;;;;7.90;4.05;;;21.10;99.90;;;21.21;75.45;97698.75;5017675;28;20326;-37
2023/09/06 09:42:54;;;;;;;9.73;3.80;;;21.10;99.90;;;21.29;82.26;97688.28;5012627;28;20044;-37
2023/09/06 09:45:24;;;;;;;6.03;3.92;;;21.20;99.90;;;21.42;82.66;97691.75;5018796;28;20095;-36
2023/09/06 09:47:54;;;;;;;5.78;3.95;;;21.30;99.90;;;21.46;80.78;97673.59;5015242;28;20029;-37
2023/09/06 09:50:22;;;;;;;6.95;4.10;;;21.50;99.90;;;21.64;79.43;97696.38;5017946;28;20030;-37
2023/09/06 09:52:49;;;;;;;5.63;4.20;;;21.60;99.90;;;21.65;78.24;97683.78;5015690;28;20026;-37
2023/09/06 09:55:16;;;;;;;6.07;4.35;;;21.60;99.90;;;21.64;78.67;97671.34;5016605;28;20045;-37
2023/09/06 09:57:46;;;;;;;5.03;3.80;;;21.60;99.90;;;21.72;77.62;97685.03;5010762;28;20041;-38
2023/09/06 10:00:13;;;;;;;5.80;4.28;;;21.70;99.90;;;21.80;78.53;97692.47;5019177;28;20386;-38
2023/09/06 10:02:45;;;;;;;8.32;4.68;;;21.70;99.90;;;21.70;75.18;97668.19;5017557;28;20121;-38
2023/09/06 10:05:21;;;;;;;6.43;3.95;;;21.70;99.90;;;21.93;76.87;97688.72;5015952;28;20052;-38
2023/09/06 10:07:48;;;;;;;8.52;4.78;;;21.80;99.90;;;21.99;77.52;97691.91;5015262;28;20038;-37
2023/09/06 10:10:13;;;;;;;6.65;4.10;;;21.90;99.90;;;22.00;76.72;97689.09;5016488;28;20034;-38
2023/09/06 10:12:44;;;;;;;7.30;4.25;;;21.90;99.90;;;22.04;76.70;97695.91;5005577;28;20025;-37
2023/09/06 10:15:19;;;;;;;6.57;4.47;;;22.00;99.90;;;22.05;84.09;97686.88;5009923;28;20033;-38